Essie, KY

3:24 AM EST on January 26, 2015 (GMT -0500)
Middlesboro | Change Station
CLOSE
Current Station
Airport
Location: Middlesboro,
Elevation: 1155 ft
Nearby Weather Stations
Active Advisory: Special Statement

Elev 1155 ft 36.61 °N, 83.74 °W | Updated 9 minutes ago

Rain
Rain
40 °F
Feels Like 40 °F
N
0
Wind Variable Wind from North

Today
High -- | Low -- °F
--% Chance of Precip.
Yesterday
High -- | Low -- °F
Precip. -- in
7:40 AM 5:51 PM
Waxing Crescent, 41% visible
Pressure 29.66 in
Visibility 10.0 miles
Clouds Overcast 1800 ft
Dew Point 37 °F
Humidity 88%
Rainfall 0.12 in
Snow Depth Not available.
UV 0 out of 12
Pollen .10 out of 12
Air Quality Not available.
Flu Activity Not available.
METAR K1A6 260815Z AUTO 00000KT 10SM -DZ OVC018 05/03 A2966 RMK AO2 T00460028

More Conditions Fewer Conditions

Pressure 29.66 in
Visibility 10.0 miles
Clouds Overcast 1800 ft
Dew Point 37 °F
Humidity 88%
Rainfall 0.12 in
Snow Depth Not available.
UV 0 out of 12
Pollen .10 out of 12
Air Quality Not available.
Flu Activity Not available.
METAR K1A6 260815Z AUTO 00000KT 10SM -DZ OVC018 05/03 A2966 RMK AO2 T00460028

More Conditions Fewer Conditions

10-Day Weather Forecast

Almanac

Astronomy

Jan. 26, 2015 Rise Set
Actual Time
Civil Twilight
Nautical Twilight
Astronomical Twilight
Moon
Length of Visible Light
Length of Day
Tomorrow will be .
, % of the Moon is Illuminated

Today's Extremes

State Highs State Lows

Community

WunderPhotos

Upload Photos

1,790,163 photos uploaded!

WunderBlogs® & News

Nearby

Air Quality

  Air Quality AQ Index Pollutant
Not available.

Snow Depth

Station Depth Elevation

Earthquake Activity

City Distance Mag. Time & Date
Minimum magnitude displayed is 2.5.

Coastal Water Temperatures

Place Temperature

Nearby Weather Stations